sensor_id;sensor_type;location;lat;lon;timestamp;P1;durP1;ratioP1;P2;durP2;ratioP2
14078;SDS011;7115;50.150;8.568;2024-01-07T00:01:46;4.30;;;3.00;;
14078;SDS011;7115;50.150;8.568;2024-01-07T00:04:14;2.97;;;2.10;;
14078;SDS011;7115;50.150;8.568;2024-01-07T00:06:42;3.30;;;2.40;;
14078;SDS011;7115;50.150;8.568;2024-01-07T00:09:10;4.33;;;1.87;;
14078;SDS011;7115;50.150;8.568;2024-01-07T00:11:38;2.97;;;2.13;;
14078;SDS011;7115;50.150;8.568;2024-01-07T00:14:06;2.70;;;2.10;;
14078;SDS011;7115;50.150;8.568;2024-01-07T00:16:33;2.80;;;2.03;;
14078;SDS011;7115;50.150;8.568;2024-01-07T00:19:00;4.47;;;2.30;;
14078;SDS011;7115;50.150;8.568;2024-01-07T00:21:27;3.93;;;2.80;;
14078;SDS011;7115;50.150;8.568;2024-01-07T00:23:55;2.77;;;2.17;;
14078;SDS011;7115;50.150;8.568;2024-01-07T00:26:22;3.27;;;2.33;;
14078;SDS011;7115;50.150;8.568;2024-01-07T00:28:50;3.40;;;2.30;;
14078;SDS011;7115;50.150;8.568;2024-01-07T00:31:17;3.43;;;2.00;;
14078;SDS011;7115;50.150;8.568;2024-01-07T00:33:44;3.33;;;2.47;;
14078;SDS011;7115;50.150;8.568;2024-01-07T00:36:11;2.47;;;1.70;;
14078;SDS011;7115;50.150;8.568;2024-01-07T00:38:39;3.87;;;2.43;;
14078;SDS011;7115;50.150;8.568;2024-01-07T00:41:05;2.90;;;2.10;;
14078;SDS011;7115;50.150;8.568;2024-01-07T00:43:32;3.17;;;2.30;;
14078;SDS011;7115;50.150;8.568;2024-01-07T00:46:01;4.27;;;2.40;;
14078;SDS011;7115;50.150;8.568;2024-01-07T00:48:28;2.10;;;1.90;;
14078;SDS011;7115;50.150;8.568;2024-01-07T00:50:55;3.27;;;2.47;;
14078;SDS011;7115;50.150;8.568;2024-01-07T00:53:22;3.07;;;1.93;;
14078;SDS011;7115;50.150;8.568;2024-01-07T00:55:49;3.33;;;2.03;;
14078;SDS011;7115;50.150;8.568;2024-01-07T00:58:16;2.60;;;1.87;;
14078;SDS011;7115;50.150;8.568;2024-01-07T01:00:43;2.10;;;1.50;;
14078;SDS011;7115;50.150;8.568;2024-01-07T01:03:12;2.53;;;1.80;;
14078;SDS011;7115;50.150;8.568;2024-01-07T01:05:39;2.60;;;1.93;;
14078;SDS011;7115;50.150;8.568;2024-01-07T01:08:06;2.67;;;1.53;;
14078;SDS011;7115;50.150;8.568;2024-01-07T01:10:33;2.67;;;1.80;;
14078;SDS011;7115;50.150;8.568;2024-01-07T01:13:00;2.07;;;1.50;;
14078;SDS011;7115;50.150;8.568;2024-01-07T01:15:27;2.40;;;1.40;;
14078;SDS011;7115;50.150;8.568;2024-01-07T01:17:54;1.77;;;1.63;;
14078;SDS011;7115;50.150;8.568;2024-01-07T01:20:22;2.33;;;1.50;;
14078;SDS011;7115;50.150;8.568;2024-01-07T01:22:49;2.17;;;1.73;;
14078;SDS011;7115;50.150;8.568;2024-01-07T01:25:16;4.83;;;1.57;;
14078;SDS011;7115;50.150;8.568;2024-01-07T01:27:43;2.40;;;1.67;;
14078;SDS011;7115;50.150;8.568;2024-01-07T01:30:11;1.67;;;1.40;;
14078;SDS011;7115;50.150;8.568;2024-01-07T01:32:38;2.27;;;1.77;;
14078;SDS011;7115;50.150;8.568;2024-01-07T01:35:06;1.93;;;1.30;;
14078;SDS011;7115;50.150;8.568;2024-01-07T01:37:35;1.60;;;1.43;;
14078;SDS011;7115;50.150;8.568;2024-01-07T01:40:02;1.80;;;1.43;;
14078;SDS011;7115;50.150;8.568;2024-01-07T01:42:30;1.70;;;1.47;;
14078;SDS011;7115;50.150;8.568;2024-01-07T01:44:57;3.37;;;1.40;;
14078;SDS011;7115;50.150;8.568;2024-01-07T01:47:28;1.50;;;1.30;;
14078;SDS011;7115;50.150;8.568;2024-01-07T01:49:55;1.97;;;1.50;;
14078;SDS011;7115;50.150;8.568;2024-01-07T01:52:22;2.57;;;1.50;;
14078;SDS011;7115;50.150;8.568;2024-01-07T01:54:51;1.83;;;1.53;;
14078;SDS011;7115;50.150;8.568;2024-01-07T01:57:19;2.23;;;1.57;;
14078;SDS011;7115;50.150;8.568;2024-01-07T01:59:49;2.40;;;1.80;;
14078;SDS011;7115;50.150;8.568;2024-01-07T02:02:16;2.03;;;1.47;;
14078;SDS011;7115;50.150;8.568;2024-01-07T02:04:43;1.63;;;1.40;;
14078;SDS011;7115;50.150;8.568;2024-01-07T02:07:10;2.20;;;1.60;;
14078;SDS011;7115;50.150;8.568;2024-01-07T02:09:39;1.60;;;1.40;;
14078;SDS011;7115;50.150;8.568;2024-01-07T02:12:08;2.73;;;1.60;;
14078;SDS011;7115;50.150;8.568;2024-01-07T02:14:38;2.17;;;1.73;;
14078;SDS011;7115;50.150;8.568;2024-01-07T02:17:05;3.33;;;1.60;;
14078;SDS011;7115;50.150;8.568;2024-01-07T02:19:33;2.30;;;1.83;;
14078;SDS011;7115;50.150;8.568;2024-01-07T02:22:00;1.80;;;1.30;;
14078;SDS011;7115;50.150;8.568;2024-01-07T02:24:28;2.53;;;1.60;;
14078;SDS011;7115;50.150;8.568;2024-01-07T02:26:56;2.60;;;1.70;;
14078;SDS011;7115;50.150;8.568;2024-01-07T02:29:23;2.83;;;1.57;;
14078;SDS011;7115;50.150;8.568;2024-01-07T02:31:50;2.27;;;1.57;;
14078;SDS011;7115;50.150;8.568;2024-01-07T02:34:17;2.30;;;1.90;;
14078;SDS011;7115;50.150;8.568;2024-01-07T02:36:44;3.10;;;1.90;;
14078;SDS011;7115;50.150;8.568;2024-01-07T02:39:11;4.80;;;1.93;;
14078;SDS011;7115;50.150;8.568;2024-01-07T02:41:40;2.13;;;1.57;;
14078;SDS011;7115;50.150;8.568;2024-01-07T02:44:07;3.97;;;2.13;;
14078;SDS011;7115;50.150;8.568;2024-01-07T02:46:38;2.10;;;1.77;;
14078;SDS011;7115;50.150;8.568;2024-01-07T02:49:05;3.40;;;2.07;;
14078;SDS011;7115;50.150;8.568;2024-01-07T02:51:32;3.43;;;2.47;;
14078;SDS011;7115;50.150;8.568;2024-01-07T02:53:59;3.07;;;2.13;;
14078;SDS011;7115;50.150;8.568;2024-01-07T02:56:26;3.40;;;2.20;;
14078;SDS011;7115;50.150;8.568;2024-01-07T02:58:54;3.43;;;2.40;;
14078;SDS011;7115;50.150;8.568;2024-01-07T03:01:22;4.50;;;2.60;;
14078;SDS011;7115;50.150;8.568;2024-01-07T03:03:51;6.93;;;3.00;;
14078;SDS011;7115;50.150;8.568;2024-01-07T03:06:18;4.33;;;2.53;;
14078;SDS011;7115;50.150;8.568;2024-01-07T03:08:46;4.00;;;2.70;;
14078;SDS011;7115;50.150;8.568;2024-01-07T03:11:14;4.27;;;2.83;;
14078;SDS011;7115;50.150;8.568;2024-01-07T03:13:41;3.90;;;2.53;;
14078;SDS011;7115;50.150;8.568;2024-01-07T03:16:18;3.13;;;2.30;;
14078;SDS011;7115;50.150;8.568;2024-01-07T03:18:46;3.40;;;2.73;;
14078;SDS011;7115;50.150;8.568;2024-01-07T03:21:16;3.70;;;2.67;;
14078;SDS011;7115;50.150;8.568;2024-01-07T03:23:44;4.60;;;2.97;;
14078;SDS011;7115;50.150;8.568;2024-01-07T03:26:11;5.33;;;3.07;;
14078;SDS011;7115;50.150;8.568;2024-01-07T03:28:38;5.17;;;3.17;;
14078;SDS011;7115;50.150;8.568;2024-01-07T03:31:07;5.70;;;3.13;;
14078;SDS011;7115;50.150;8.568;2024-01-07T03:33:37;4.63;;;3.00;;
14078;SDS011;7115;50.150;8.568;2024-01-07T03:36:06;5.20;;;3.27;;
14078;SDS011;7115;50.150;8.568;2024-01-07T03:38:34;4.70;;;3.47;;
14078;SDS011;7115;50.150;8.568;2024-01-07T03:41:01;4.73;;;2.80;;
14078;SDS011;7115;50.150;8.568;2024-01-07T03:43:28;5.30;;;3.20;;
14078;SDS011;7115;50.150;8.568;2024-01-07T03:45:55;7.03;;;3.70;;
14078;SDS011;7115;50.150;8.568;2024-01-07T03:48:24;6.73;;;3.60;;
14078;SDS011;7115;50.150;8.568;2024-01-07T03:50:51;5.57;;;3.47;;
14078;SDS011;7115;50.150;8.568;2024-01-07T03:53:18;5.73;;;3.40;;
14078;SDS011;7115;50.150;8.568;2024-01-07T03:55:46;6.57;;;3.33;;
14078;SDS011;7115;50.150;8.568;2024-01-07T03:58:13;4.83;;;2.80;;
14078;SDS011;7115;50.150;8.568;2024-01-07T04:00:40;4.17;;;3.37;;
14078;SDS011;7115;50.150;8.568;2024-01-07T04:03:07;4.30;;;3.23;;
14078;SDS011;7115;50.150;8.568;2024-01-07T04:05:35;4.83;;;2.60;;
14078;SDS011;7115;50.150;8.568;2024-01-07T04:08:04;3.77;;;2.53;;
14078;SDS011;7115;50.150;8.568;2024-01-07T04:10:31;4.00;;;2.30;;
14078;SDS011;7115;50.150;8.568;2024-01-07T04:12:58;3.63;;;1.73;;
14078;SDS011;7115;50.150;8.568;2024-01-07T04:15:25;4.43;;;2.23;;
14078;SDS011;7115;50.150;8.568;2024-01-07T04:17:52;3.27;;;2.00;;
14078;SDS011;7115;50.150;8.568;2024-01-07T04:20:20;4.10;;;2.30;;
14078;SDS011;7115;50.150;8.568;2024-01-07T04:22:48;2.97;;;1.90;;
14078;SDS011;7115;50.150;8.568;2024-01-07T04:25:15;4.07;;;2.47;;
14078;SDS011;7115;50.150;8.568;2024-01-07T04:27:42;3.43;;;2.27;;
14078;SDS011;7115;50.150;8.568;2024-01-07T04:30:09;5.20;;;2.60;;
14078;SDS011;7115;50.150;8.568;2024-01-07T04:32:37;3.67;;;2.20;;
14078;SDS011;7115;50.150;8.568;2024-01-07T04:35:04;4.10;;;2.57;;
14078;SDS011;7115;50.150;8.568;2024-01-07T04:37:32;5.77;;;2.70;;
14078;SDS011;7115;50.150;8.568;2024-01-07T04:40:01;3.87;;;2.87;;
14078;SDS011;7115;50.150;8.568;2024-01-07T04:42:28;4.40;;;2.90;;
14078;SDS011;7115;50.150;8.568;2024-01-07T04:44:56;5.40;;;3.30;;
14078;SDS011;7115;50.150;8.568;2024-01-07T04:47:23;8.13;;;3.87;;
14078;SDS011;7115;50.150;8.568;2024-01-07T04:49:55;7.93;;;3.73;;
14078;SDS011;7115;50.150;8.568;2024-01-07T04:52:23;6.73;;;4.00;;
14078;SDS011;7115;50.150;8.568;2024-01-07T04:54:50;7.70;;;4.07;;
14078;SDS011;7115;50.150;8.568;2024-01-07T04:57:19;8.90;;;4.13;;
14078;SDS011;7115;50.150;8.568;2024-01-07T04:59:46;7.53;;;4.33;;
14078;SDS011;7115;50.150;8.568;2024-01-07T05:02:14;8.27;;;4.57;;
14078;SDS011;7115;50.150;8.568;2024-01-07T05:04:41;7.80;;;4.80;;
14078;SDS011;7115;50.150;8.568;2024-01-07T05:07:08;8.37;;;5.30;;
14078;SDS011;7115;50.150;8.568;2024-01-07T05:09:35;8.80;;;5.63;;
14078;SDS011;7115;50.150;8.568;2024-01-07T05:12:03;8.43;;;5.27;;
14078;SDS011;7115;50.150;8.568;2024-01-07T05:14:31;9.87;;;5.83;;
14078;SDS011;7115;50.150;8.568;2024-01-07T05:16:58;9.80;;;6.20;;
14078;SDS011;7115;50.150;8.568;2024-01-07T05:19:25;9.90;;;6.07;;
14078;SDS011;7115;50.150;8.568;2024-01-07T05:21:53;12.73;;;6.47;;
14078;SDS011;7115;50.150;8.568;2024-01-07T05:24:20;10.97;;;6.57;;
14078;SDS011;7115;50.150;8.568;2024-01-07T05:26:47;12.27;;;7.63;;
14078;SDS011;7115;50.150;8.568;2024-01-07T05:29:14;13.27;;;7.77;;
14078;SDS011;7115;50.150;8.568;2024-01-07T05:31:42;10.80;;;7.13;;
14078;SDS011;7115;50.150;8.568;2024-01-07T05:34:10;12.30;;;7.73;;
14078;SDS011;7115;50.150;8.568;2024-01-07T05:36:37;13.33;;;8.07;;
14078;SDS011;7115;50.150;8.568;2024-01-07T05:39:04;14.90;;;8.33;;
14078;SDS011;7115;50.150;8.568;2024-01-07T05:41:32;17.73;;;9.10;;
14078;SDS011;7115;50.150;8.568;2024-01-07T05:43:59;15.10;;;8.47;;
14078;SDS011;7115;50.150;8.568;2024-01-07T05:46:26;14.73;;;8.33;;
14078;SDS011;7115;50.150;8.568;2024-01-07T05:48:55;18.13;;;9.90;;
14078;SDS011;7115;50.150;8.568;2024-01-07T05:51:22;12.80;;;8.80;;
14078;SDS011;7115;50.150;8.568;2024-01-07T05:53:49;13.30;;;8.33;;
14078;SDS011;7115;50.150;8.568;2024-01-07T05:56:16;14.43;;;8.90;;
14078;SDS011;7115;50.150;8.568;2024-01-07T05:58:43;13.53;;;8.07;;
14078;SDS011;7115;50.150;8.568;2024-01-07T06:01:10;11.13;;;7.27;;
14078;SDS011;7115;50.150;8.568;2024-01-07T06:03:37;11.57;;;8.00;;
14078;SDS011;7115;50.150;8.568;2024-01-07T06:06:06;13.20;;;8.13;;
14078;SDS011;7115;50.150;8.568;2024-01-07T06:08:33;10.60;;;6.70;;
14078;SDS011;7115;50.150;8.568;2024-01-07T06:11:00;10.97;;;7.03;;
14078;SDS011;7115;50.150;8.568;2024-01-07T06:13:27;7.73;;;5.17;;
14078;SDS011;7115;50.150;8.568;2024-01-07T06:15:54;7.53;;;5.10;;
14078;SDS011;7115;50.150;8.568;2024-01-07T06:18:21;5.67;;;4.33;;
14078;SDS011;7115;50.150;8.568;2024-01-07T06:20:48;6.03;;;4.40;;
14078;SDS011;7115;50.150;8.568;2024-01-07T06:23:16;5.03;;;3.80;;
14078;SDS011;7115;50.150;8.568;2024-01-07T06:25:44;5.17;;;3.70;;
14078;SDS011;7115;50.150;8.568;2024-01-07T06:28:11;4.63;;;3.80;;
14078;SDS011;7115;50.150;8.568;2024-01-07T06:30:38;6.53;;;3.60;;
14078;SDS011;7115;50.150;8.568;2024-01-07T06:33:05;5.30;;;3.80;;
14078;SDS011;7115;50.150;8.568;2024-01-07T06:35:32;5.37;;;3.50;;
14078;SDS011;7115;50.150;8.568;2024-01-07T06:37:59;5.53;;;3.77;;
14078;SDS011;7115;50.150;8.568;2024-01-07T06:40:28;6.60;;;4.57;;
14078;SDS011;7115;50.150;8.568;2024-01-07T06:42:55;7.03;;;4.60;;
14078;SDS011;7115;50.150;8.568;2024-01-07T06:45:22;5.47;;;4.40;;
14078;SDS011;7115;50.150;8.568;2024-01-07T06:47:49;7.33;;;4.70;;
14078;SDS011;7115;50.150;8.568;2024-01-07T06:50:17;5.80;;;4.33;;
14078;SDS011;7115;50.150;8.568;2024-01-07T06:52:46;6.80;;;4.60;;
14078;SDS011;7115;50.150;8.568;2024-01-07T06:55:13;6.17;;;4.57;;
14078;SDS011;7115;50.150;8.568;2024-01-07T06:57:41;7.53;;;5.10;;
14078;SDS011;7115;50.150;8.568;2024-01-07T07:00:09;8.13;;;4.93;;
14078;SDS011;7115;50.150;8.568;2024-01-07T07:02:36;7.23;;;4.97;;
14078;SDS011;7115;50.150;8.568;2024-01-07T07:05:03;6.93;;;5.20;;
14078;SDS011;7115;50.150;8.568;2024-01-07T07:07:31;7.70;;;4.90;;
14078;SDS011;7115;50.150;8.568;2024-01-07T07:09:58;8.73;;;5.37;;
14078;SDS011;7115;50.150;8.568;2024-01-07T07:12:24;10.37;;;6.27;;
14078;SDS011;7115;50.150;8.568;2024-01-07T07:14:53;7.80;;;5.30;;
14078;SDS011;7115;50.150;8.568;2024-01-07T07:17:20;8.07;;;5.83;;
14078;SDS011;7115;50.150;8.568;2024-01-07T07:19:47;11.43;;;6.87;;
14078;SDS011;7115;50.150;8.568;2024-01-07T07:22:14;8.30;;;5.70;;
14078;SDS011;7115;50.150;8.568;2024-01-07T07:24:41;10.30;;;6.20;;
14078;SDS011;7115;50.150;8.568;2024-01-07T07:27:08;11.83;;;6.43;;
14078;SDS011;7115;50.150;8.568;2024-01-07T07:29:35;9.83;;;6.17;;
14078;SDS011;7115;50.150;8.568;2024-01-07T07:32:04;10.23;;;6.47;;
14078;SDS011;7115;50.150;8.568;2024-01-07T07:34:33;12.13;;;6.10;;
14078;SDS011;7115;50.150;8.568;2024-01-07T07:37:00;12.10;;;6.23;;
14078;SDS011;7115;50.150;8.568;2024-01-07T07:39:27;12.67;;;7.03;;
14078;SDS011;7115;50.150;8.568;2024-01-07T07:41:54;13.00;;;7.40;;
14078;SDS011;7115;50.150;8.568;2024-01-07T07:44:21;12.57;;;6.90;;
14078;SDS011;7115;50.150;8.568;2024-01-07T07:46:48;12.90;;;6.97;;
14078;SDS011;7115;50.150;8.568;2024-01-07T07:49:18;12.47;;;7.03;;
14078;SDS011;7115;50.150;8.568;2024-01-07T07:51:45;11.17;;;7.20;;
14078;SDS011;7115;50.150;8.568;2024-01-07T07:54:12;13.33;;;7.63;;
14078;SDS011;7115;50.150;8.568;2024-01-07T07:56:41;12.27;;;7.03;;
14078;SDS011;7115;50.150;8.568;2024-01-07T07:59:08;14.17;;;7.17;;
14078;SDS011;7115;50.150;8.568;2024-01-07T08:01:35;10.13;;;6.43;;
14078;SDS011;7115;50.150;8.568;2024-01-07T08:04:02;12.37;;;7.87;;
14078;SDS011;7115;50.150;8.568;2024-01-07T08:06:33;13.83;;;7.50;;
14078;SDS011;7115;50.150;8.568;2024-01-07T08:09:00;10.30;;;6.67;;
14078;SDS011;7115;50.150;8.568;2024-01-07T08:11:27;11.47;;;6.80;;
14078;SDS011;7115;50.150;8.568;2024-01-07T08:13:55;13.33;;;7.27;;
14078;SDS011;7115;50.150;8.568;2024-01-07T08:16:23;12.50;;;7.57;;
14078;SDS011;7115;50.150;8.568;2024-01-07T08:18:50;13.50;;;8.03;;
14078;SDS011;7115;50.150;8.568;2024-01-07T08:21:18;14.87;;;8.10;;
14078;SDS011;7115;50.150;8.568;2024-01-07T08:23:46;16.80;;;9.70;;
14078;SDS011;7115;50.150;8.568;2024-01-07T08:26:17;11.50;;;8.30;;
14078;SDS011;7115;50.150;8.568;2024-01-07T08:28:45;15.83;;;8.77;;
14078;SDS011;7115;50.150;8.568;2024-01-07T08:31:12;14.63;;;9.53;;
14078;SDS011;7115;50.150;8.568;2024-01-07T08:33:39;15.00;;;8.33;;
14078;SDS011;7115;50.150;8.568;2024-01-07T08:36:06;13.97;;;8.30;;
14078;SDS011;7115;50.150;8.568;2024-01-07T08:38:33;13.70;;;8.13;;
14078;SDS011;7115;50.150;8.568;2024-01-07T08:41:03;12.47;;;8.03;;
14078;SDS011;7115;50.150;8.568;2024-01-07T08:43:31;15.43;;;8.83;;
14078;SDS011;7115;50.150;8.568;2024-01-07T08:45:58;13.53;;;8.47;;
14078;SDS011;7115;50.150;8.568;2024-01-07T08:48:25;14.27;;;7.60;;
14078;SDS011;7115;50.150;8.568;2024-01-07T08:50:52;13.37;;;7.57;;
14078;SDS011;7115;50.150;8.568;2024-01-07T08:53:19;11.80;;;7.70;;
14078;SDS011;7115;50.150;8.568;2024-01-07T08:55:48;12.70;;;6.33;;
14078;SDS011;7115;50.150;8.568;2024-01-07T08:58:16;12.70;;;7.43;;
14078;SDS011;7115;50.150;8.568;2024-01-07T09:00:44;12.20;;;7.23;;
14078;SDS011;7115;50.150;8.568;2024-01-07T09:03:11;9.97;;;6.07;;
14078;SDS011;7115;50.150;8.568;2024-01-07T09:05:38;9.13;;;6.23;;
14078;SDS011;7115;50.150;8.568;2024-01-07T09:08:05;12.10;;;6.77;;
14078;SDS011;7115;50.150;8.568;2024-01-07T09:10:33;11.30;;;6.17;;
14078;SDS011;7115;50.150;8.568;2024-01-07T09:13:00;12.63;;;8.57;;
14078;SDS011;7115;50.150;8.568;2024-01-07T09:15:30;8.93;;;6.17;;
14078;SDS011;7115;50.150;8.568;2024-01-07T09:17:57;10.17;;;5.77;;
14078;SDS011;7115;50.150;8.568;2024-01-07T09:20:24;10.73;;;6.53;;
14078;SDS011;7115;50.150;8.568;2024-01-07T09:22:51;9.77;;;6.47;;
14078;SDS011;7115;50.150;8.568;2024-01-07T09:25:18;8.57;;;5.97;;
14078;SDS011;7115;50.150;8.568;2024-01-07T09:27:45;11.90;;;6.83;;
14078;SDS011;7115;50.150;8.568;2024-01-07T09:30:13;8.60;;;6.03;;
14078;SDS011;7115;50.150;8.568;2024-01-07T09:32:43;10.33;;;6.73;;
14078;SDS011;7115;50.150;8.568;2024-01-07T09:35:13;9.20;;;6.17;;
14078;SDS011;7115;50.150;8.568;2024-01-07T09:37:44;6.60;;;4.70;;
14078;SDS011;7115;50.150;8.568;2024-01-07T09:40:12;10.40;;;4.53;;
14078;SDS011;7115;50.150;8.568;2024-01-07T09:42:43;7.83;;;5.30;;
14078;SDS011;7115;50.150;8.568;2024-01-07T09:45:10;6.20;;;4.87;;
14078;SDS011;7115;50.150;8.568;2024-01-07T09:47:39;6.67;;;4.73;;
14078;SDS011;7115;50.150;8.568;2024-01-07T09:50:09;7.37;;;5.00;;
14078;SDS011;7115;50.150;8.568;2024-01-07T09:52:37;9.03;;;5.40;;
14078;SDS011;7115;50.150;8.568;2024-01-07T09:55:07;6.83;;;5.03;;
14078;SDS011;7115;50.150;8.568;2024-01-07T09:57:36;8.40;;;5.73;;
14078;SDS011;7115;50.150;8.568;2024-01-07T10:00:07;7.60;;;5.60;;
14078;SDS011;7115;50.150;8.568;2024-01-07T10:02:35;7.80;;;5.73;;
14078;SDS011;7115;50.150;8.568;2024-01-07T10:05:02;8.87;;;6.53;;
14078;SDS011;7115;50.150;8.568;2024-01-07T10:07:31;9.23;;;5.60;;
14078;SDS011;7115;50.150;8.568;2024-01-07T10:10:01;9.60;;;6.20;;
14078;SDS011;7115;50.150;8.568;2024-01-07T10:12:38;8.43;;;5.83;;
14078;SDS011;7115;50.150;8.568;2024-01-07T10:15:05;8.87;;;6.07;;
14078;SDS011;7115;50.150;8.568;2024-01-07T10:17:34;7.27;;;5.47;;
14078;SDS011;7115;50.150;8.568;2024-01-07T10:20:01;8.67;;;5.70;;
14078;SDS011;7115;50.150;8.568;2024-01-07T10:22:32;8.30;;;5.37;;
14078;SDS011;7115;50.150;8.568;2024-01-07T10:24:59;7.23;;;5.17;;
14078;SDS011;7115;50.150;8.568;2024-01-07T10:27:26;7.47;;;5.50;;
14078;SDS011;7115;50.150;8.568;2024-01-07T10:29:53;7.03;;;5.27;;
14078;SDS011;7115;50.150;8.568;2024-01-07T10:32:21;6.73;;;5.20;;
14078;SDS011;7115;50.150;8.568;2024-01-07T10:34:48;7.83;;;5.63;;
14078;SDS011;7115;50.150;8.568;2024-01-07T10:37:18;7.17;;;5.43;;
14078;SDS011;7115;50.150;8.568;2024-01-07T10:39:47;8.90;;;5.77;;
14078;SDS011;7115;50.150;8.568;2024-01-07T10:42:16;7.57;;;5.30;;
14078;SDS011;7115;50.150;8.568;2024-01-07T10:44:44;6.53;;;4.90;;
14078;SDS011;7115;50.150;8.568;2024-01-07T10:47:11;8.33;;;4.90;;
14078;SDS011;7115;50.150;8.568;2024-01-07T10:49:41;9.97;;;5.77;;
14078;SDS011;7115;50.150;8.568;2024-01-07T10:52:11;9.37;;;5.90;;
14078;SDS011;7115;50.150;8.568;2024-01-07T10:54:38;7.67;;;5.50;;
14078;SDS011;7115;50.150;8.568;2024-01-07T10:57:15;8.57;;;5.67;;
14078;SDS011;7115;50.150;8.568;2024-01-07T10:59:47;6.87;;;5.10;;
14078;SDS011;7115;50.150;8.568;2024-01-07T11:02:19;8.90;;;5.60;;
14078;SDS011;7115;50.150;8.568;2024-01-07T11:04:50;8.13;;;5.57;;
14078;SDS011;7115;50.150;8.568;2024-01-07T11:07:26;7.27;;;5.07;;
14078;SDS011;7115;50.150;8.568;2024-01-07T11:10:05;6.97;;;5.40;;
14078;SDS011;7115;50.150;8.568;2024-01-07T11:12:37;8.67;;;5.40;;
14078;SDS011;7115;50.150;8.568;2024-01-07T11:15:04;9.93;;;5.53;;
14078;SDS011;7115;50.150;8.568;2024-01-07T11:17:41;7.10;;;5.47;;
14078;SDS011;7115;50.150;8.568;2024-01-07T11:20:13;10.07;;;6.10;;
14078;SDS011;7115;50.150;8.568;2024-01-07T11:22:45;10.07;;;7.10;;
14078;SDS011;7115;50.150;8.568;2024-01-07T11:25:28;8.23;;;5.73;;
14078;SDS011;7115;50.150;8.568;2024-01-07T11:27:59;9.17;;;5.20;;
14078;SDS011;7115;50.150;8.568;2024-01-07T11:30:28;5.93;;;4.83;;
14078;SDS011;7115;50.150;8.568;2024-01-07T11:32:56;8.80;;;6.03;;
14078;SDS011;7115;50.150;8.568;2024-01-07T11:40:52;8.13;;;5.87;;
14078;SDS011;7115;50.150;8.568;2024-01-07T11:43:19;8.00;;;5.20;;
14078;SDS011;7115;50.150;8.568;2024-01-07T11:45:46;10.23;;;6.20;;
14078;SDS011;7115;50.150;8.568;2024-01-07T11:48:15;7.37;;;5.50;;
14078;SDS011;7115;50.150;8.568;2024-01-07T11:50:43;8.83;;;5.77;;
14078;SDS011;7115;50.150;8.568;2024-01-07T11:53:15;11.70;;;6.03;;
14078;SDS011;7115;50.150;8.568;2024-01-07T11:55:42;8.20;;;5.93;;
14078;SDS011;7115;50.150;8.568;2024-01-07T11:58:10;11.57;;;6.17;;
14078;SDS011;7115;50.150;8.568;2024-01-07T12:00:37;9.77;;;6.27;;
14078;SDS011;7115;50.150;8.568;2024-01-07T12:03:05;9.67;;;5.93;;
14078;SDS011;7115;50.150;8.568;2024-01-07T12:05:32;10.80;;;6.27;;
14078;SDS011;7115;50.150;8.568;2024-01-07T12:08:00;11.63;;;6.13;;
14078;SDS011;7115;50.150;8.568;2024-01-07T12:10:28;10.57;;;6.30;;
14078;SDS011;7115;50.150;8.568;2024-01-07T12:12:55;10.47;;;6.47;;
14078;SDS011;7115;50.150;8.568;2024-01-07T12:15:22;10.13;;;5.80;;
14078;SDS011;7115;50.150;8.568;2024-01-07T12:17:57;26.53;;;14.30;;
14078;SDS011;7115;50.150;8.568;2024-01-07T12:20:25;10.13;;;6.13;;
14078;SDS011;7115;50.150;8.568;2024-01-07T12:22:55;12.40;;;6.33;;
14078;SDS011;7115;50.150;8.568;2024-01-07T12:25:23;10.10;;;6.20;;
14078;SDS011;7115;50.150;8.568;2024-01-07T12:27:52;8.03;;;5.60;;
14078;SDS011;7115;50.150;8.568;2024-01-07T12:30:19;10.70;;;5.93;;
14078;SDS011;7115;50.150;8.568;2024-01-07T12:32:47;7.50;;;5.33;;
14078;SDS011;7115;50.150;8.568;2024-01-07T12:35:14;9.77;;;5.83;;
14078;SDS011;7115;50.150;8.568;2024-01-07T12:37:43;8.33;;;4.87;;
14078;SDS011;7115;50.150;8.568;2024-01-07T12:40:11;9.27;;;5.23;;
14078;SDS011;7115;50.150;8.568;2024-01-07T12:42:39;8.60;;;5.77;;
14078;SDS011;7115;50.150;8.568;2024-01-07T12:45:13;11.13;;;5.30;;
14078;SDS011;7115;50.150;8.568;2024-01-07T12:47:41;7.67;;;4.50;;
14078;SDS011;7115;50.150;8.568;2024-01-07T12:50:10;9.30;;;4.90;;
14078;SDS011;7115;50.150;8.568;2024-01-07T12:52:37;7.93;;;4.87;;
14078;SDS011;7115;50.150;8.568;2024-01-07T12:55:06;8.03;;;5.20;;
14078;SDS011;7115;50.150;8.568;2024-01-07T12:57:34;7.47;;;4.97;;
14078;SDS011;7115;50.150;8.568;2024-01-07T13:00:04;12.00;;;5.50;;
14078;SDS011;7115;50.150;8.568;2024-01-07T13:02:36;10.57;;;5.33;;
14078;SDS011;7115;50.150;8.568;2024-01-07T13:05:03;7.80;;;4.93;;
14078;SDS011;7115;50.150;8.568;2024-01-07T13:07:31;7.67;;;4.50;;
14078;SDS011;7115;50.150;8.568;2024-01-07T13:09:58;7.30;;;4.60;;
14078;SDS011;7115;50.150;8.568;2024-01-07T13:12:26;8.03;;;4.47;;
14078;SDS011;7115;50.150;8.568;2024-01-07T13:15:09;7.50;;;4.57;;
14078;SDS011;7115;50.150;8.568;2024-01-07T13:17:38;7.57;;;4.77;;
14078;SDS011;7115;50.150;8.568;2024-01-07T13:20:05;8.20;;;4.70;;
14078;SDS011;7115;50.150;8.568;2024-01-07T13:22:37;9.97;;;5.47;;
14078;SDS011;7115;50.150;8.568;2024-01-07T13:25:05;8.93;;;4.90;;
14078;SDS011;7115;50.150;8.568;2024-01-07T13:27:33;9.43;;;5.13;;
14078;SDS011;7115;50.150;8.568;2024-01-07T13:30:03;8.20;;;4.93;;
14078;SDS011;7115;50.150;8.568;2024-01-07T13:32:32;7.17;;;5.30;;
14078;SDS011;7115;50.150;8.568;2024-01-07T13:35:06;7.50;;;4.90;;
14078;SDS011;7115;50.150;8.568;2024-01-07T13:37:37;8.00;;;4.80;;
14078;SDS011;7115;50.150;8.568;2024-01-07T13:40:04;7.73;;;4.70;;
14078;SDS011;7115;50.150;8.568;2024-01-07T13:42:32;8.87;;;5.00;;
14078;SDS011;7115;50.150;8.568;2024-01-07T13:45:00;9.07;;;5.33;;
14078;SDS011;7115;50.150;8.568;2024-01-07T13:47:27;8.27;;;4.93;;
14078;SDS011;7115;50.150;8.568;2024-01-07T13:49:54;7.83;;;4.77;;
14078;SDS011;7115;50.150;8.568;2024-01-07T13:52:22;10.87;;;5.90;;
14078;SDS011;7115;50.150;8.568;2024-01-07T13:54:50;9.77;;;5.77;;
14078;SDS011;7115;50.150;8.568;2024-01-07T13:57:16;9.60;;;5.10;;
14078;SDS011;7115;50.150;8.568;2024-01-07T13:59:44;9.93;;;4.73;;
14078;SDS011;7115;50.150;8.568;2024-01-07T14:02:11;10.27;;;5.63;;
14078;SDS011;7115;50.150;8.568;2024-01-07T14:04:39;7.60;;;4.80;;
14078;SDS011;7115;50.150;8.568;2024-01-07T14:07:06;8.33;;;4.80;;
14078;SDS011;7115;50.150;8.568;2024-01-07T14:09:34;7.07;;;4.67;;
14078;SDS011;7115;50.150;8.568;2024-01-07T14:12:01;7.47;;;4.47;;
14078;SDS011;7115;50.150;8.568;2024-01-07T14:14:29;9.37;;;4.70;;
14078;SDS011;7115;50.150;8.568;2024-01-07T14:16:56;6.80;;;4.47;;
14078;SDS011;7115;50.150;8.568;2024-01-07T14:19:23;9.20;;;4.80;;
14078;SDS011;7115;50.150;8.568;2024-01-07T14:21:50;6.00;;;4.00;;
14078;SDS011;7115;50.150;8.568;2024-01-07T14:24:19;5.33;;;3.67;;
14078;SDS011;7115;50.150;8.568;2024-01-07T14:26:47;7.70;;;3.90;;
14078;SDS011;7115;50.150;8.568;2024-01-07T14:29:15;7.27;;;3.97;;
14078;SDS011;7115;50.150;8.568;2024-01-07T14:31:43;4.87;;;3.83;;
14078;SDS011;7115;50.150;8.568;2024-01-07T14:34:12;6.97;;;3.63;;
14078;SDS011;7115;50.150;8.568;2024-01-07T14:36:39;5.07;;;3.57;;
14078;SDS011;7115;50.150;8.568;2024-01-07T14:39:09;4.57;;;3.47;;
14078;SDS011;7115;50.150;8.568;2024-01-07T14:41:37;4.10;;;3.20;;
14078;SDS011;7115;50.150;8.568;2024-01-07T14:44:05;6.13;;;3.93;;
14078;SDS011;7115;50.150;8.568;2024-01-07T14:46:37;4.50;;;2.90;;
14078;SDS011;7115;50.150;8.568;2024-01-07T14:49:04;4.80;;;3.30;;
14078;SDS011;7115;50.150;8.568;2024-01-07T14:51:31;5.17;;;3.27;;
14078;SDS011;7115;50.150;8.568;2024-01-07T14:53:58;4.17;;;2.70;;
14078;SDS011;7115;50.150;8.568;2024-01-07T14:56:26;5.80;;;3.07;;
14078;SDS011;7115;50.150;8.568;2024-01-07T14:58:54;4.63;;;2.77;;
14078;SDS011;7115;50.150;8.568;2024-01-07T15:01:22;4.37;;;2.77;;
14078;SDS011;7115;50.150;8.568;2024-01-07T15:03:50;4.73;;;2.80;;
14078;SDS011;7115;50.150;8.568;2024-01-07T15:06:17;3.53;;;2.60;;
14078;SDS011;7115;50.150;8.568;2024-01-07T15:08:44;4.77;;;2.70;;